Latest Coastal Weather Observations for Cerberus

IDV60701

Issued at 11:35 pm EST Thursday 31 July 2014 (issued every 10 minutes, with the page automatically refreshed every 10 minutes)

About coastal observations | Map of coastal stations | Coastal observations for VIC | Marine services | Other Formats
Station Details ID: 086361 Name: CERBERUS Lat: -38.36 Lon: 145.18 Height: 12.69 m
Data from the previous 72 hours. | See also: Recent months at Cerberus
Date/Time
EST
Temp

°C
Wind Pressure Rain
since 9am
mm
Weather Cloud Vis
km
Sea
Height
m
Swell
Dir
 
Speed
knots
Gust
knots
hPa Trend Height
m
Period
s
Dir
31/11:30pm 8.2 WNW 16 24 1000.2 - 6.0 - - - - - - -
31/11:00pm 8.4 WNW 15 25 1000.2 - 6.0 - - - - - - -
31/10:31pm 8.6 WNW 15 27 1000.3 - 6.0 - - - - - - -
31/10:30pm 8.6 WNW 15 22 1000.3 - 6.0 - - - - - - -
31/10:00pm 8.4 WNW 12 20 1000.0 - 6.0 - - - - - - -
31/09:30pm 8.2 WNW 13 20 999.7 - 6.0 - - - - - - -
31/09:00pm 8.6 WNW 17 28 999.2 - 6.0 - - - - - - -
31/08:30pm 9.1 WNW 15 25 999.5 - 6.0 - - - - - - -
31/08:29pm 9.1 WNW 15 25 999.5 - 6.0 - - - - - - -
31/08:00pm 8.8 WNW 14 27 999.2 - 6.0 - - - - - - -
31/07:53pm 8.8 NW 15 27 999.0 - 6.0 - - - - - - -
31/07:30pm 8.9 WNW 16 25 998.5 - 5.8 - - - - - - -
31/07:00pm 8.2 NW 12 22 998.7 - 5.8 - - - - - - -
31/06:30pm 7.8 NW 14 21 998.2 - 5.8 - - - - - - -
31/06:00pm 7.4 WNW 13 19 998.1 - 5.8 Recent precip. - - - - - -
31/05:30pm 7.2 WNW 16 24 998.0 - 5.4 - - - - - - -
31/05:00pm 7.6 W 15 23 998.0 - 4.6 - - - - - - -
31/04:30pm 7.9 W 16 29 997.4 - 4.0 - - - - - - -
31/04:07pm 8.1 W 15 25 997.1 - 3.2 - - - - - - -
31/04:00pm 8.2 W 11 22 997.3 - 2.8 - - - - - - -
31/03:30pm 8.4 W 18 26 996.3 - 2.0 - - - - - - -
31/03:04pm 9.6 W 18 31 995.5 - 1.6 - - - - - - -
31/03:00pm 10.0 W 16 25 995.5 - 1.4 Rain - - - - - -
31/02:30pm 10.8 W 13 21 994.3 - 0.4 - - - - - - -
31/02:16pm 13.7 WNW 24 35 993.4 - 0.0 - - - - - - -
31/02:00pm 16.8 NW 18 31 992.1 - 0.0 - - - - - - -
31/01:30pm 17.3 NNW 17 28 992.4 - 0.0 - - - - - - -
31/01:00pm 17.5 NNW 15 29 992.8 - 0.0 - - - - - - -
31/12:30pm 17.2 NNW 20 38 993.2 - 0.0 - - - - - - -
31/12:00pm 17.0 NNW 18 31 993.7 - 0.0 - - - - - - -
31/11:30am 16.7 NNW 19 31 995.2 - 0.0 - - - - - - -
31/11:00am 16.6 N 16 33 996.8 - 0.0 - - - - - - -
31/10:56am 16.5 NNW 15 27 996.7 - 0.0 - - - - - - -
31/10:30am 16.0 N 13 24 997.4 - 0.0 - - - - - - -
31/10:00am 15.8 N 13 21 998.3 - 0.0 - - - - - - -
31/09:33am 15.5 N 16 26 998.1 - 0.0 - - - - - - -
31/09:30am 15.5 N 17 26 998.2 - 0.0 - - - - - - -
31/09:00am 15.0 N 17 27 998.5 - 0.4 - - - - - - -
31/08:30am 14.6 NNW 18 30 998.8 - 0.4 - - - - - - -
31/08:00am 14.4 NNW 18 29 999.0 - 0.4 - - - - - - -
31/07:30am 14.2 NNW 20 35 999.0 - 0.4 - - - - - - -
31/07:00am 14.0 NNW 16 27 999.2 - 0.4 - - - - - - -
31/06:30am 14.1 N 16 27 999.6 - 0.4 - - - - - - -
31/06:28am 14.1 N 15 27 999.7 - 0.4 - - - - - - -
31/06:00am 14.1 N 13 23 1000.3 - 0.4 - - - - - - -
31/05:30am 14.0 N 12 22 1000.9 - 0.4 - - - - - - -
31/05:00am 14.4 N 15 27 1001.4 - 0.4 - - - - - - -
31/04:35am 14.7 NNW 17 28 1001.9 - 0.4 - - - - - - -
31/04:30am 14.6 NNW 15 24 1001.9 - 0.4 - - - - - - -
31/04:00am 14.7 NNW 16 28 1002.1 - 0.4 - - - - - - -
31/03:30am 14.9 NNW 18 30 1002.4 - 0.4 - - - - - - -
31/03:03am 14.9 NNW 18 31 1002.5 - 0.4 - - - - - - -
31/03:00am 14.9 NNW 17 27 1002.7 - 0.4 - - - - - - -
31/02:30am 15.2 NNW 16 30 1003.3 - 0.4 - - - - - - -
31/02:00am 15.1 NNW 15 26 1004.1 - 0.4 - - - - - - -
31/01:49am 15.0 NNW 15 25 1004.4 - 0.4 - - - - - - -
31/01:30am 14.9 N 12 26 1004.6 - 0.4 - - - - - - -
31/01:00am 15.0 NNW 13 23 1005.4 - 0.4 - - - - - - -
31/12:33am 15.2 NNW 15 26 1005.8 - 0.4 - - - - - - -
31/12:30am 15.2 NNW 15 24 1005.9 - 0.4 - - - - - - -
31/12:00am 15.4 NNW 15 27 1006.5 - 0.4 - - - - - - -
 
Date/Time
EST
Temp

°C
Wind Pressure Rain
since 9am
mm
Weather Cloud Vis
km
Sea
Height
m
Swell
Dir
 
Speed
knots
Gust
knots
hPa Trend Height
m
Period
s
Dir
30/11:34pm 15.5 NNW 15 27 1006.5 - 0.4 - - - - - - -
30/11:30pm 15.4 NNW 14 25 1006.7 - 0.4 - - - - - - -
30/11:00pm 15.6 NNW 15 25 1006.7 - 0.4 - - - - - - -
30/10:34pm 15.7 NNW 15 27 1006.5 - 0.4 - - - - - - -
30/10:30pm 15.8 NNW 14 27 1006.4 - 0.4 - - - - - - -
30/10:04pm 15.7 NNW 15 30 1007.2 - 0.4 - - - - - - -
30/10:00pm 15.7 NNW 14 30 1007.3 - 0.4 - - - - - - -
30/09:30pm 15.4 NNW 12 20 1007.6 - 0.4 - - - - - - -
30/09:00pm 15.2 NW 13 22 1008.0 - 0.4 - - - - - - -
30/08:30pm 15.5 NW 15 27 1007.7 - 0.4 - - - - - - -
30/08:25pm 15.5 NW 16 27 1007.5 - 0.4 - - - - - - -
30/08:00pm 15.4 NNW 13 25 1007.6 - 0.4 - - - - - - -
30/07:30pm 15.5 NNW 14 22 1007.4 - 0.4 - - - - - - -
30/07:00pm 15.1 NNW 10 16 1008.1 - 0.4 - - - - - - -
30/06:30pm 15.1 NNW 11 21 1007.9 - 0.4 - - - - - - -
30/06:00pm 14.9 NNW 9 17 1007.9 - 0.4 - - - - - - -
30/05:30pm 15.2 NNW 12 20 1007.6 - 0.4 - - - - - - -
30/05:00pm 15.4 NNW 10 19 1007.8 - 0.4 - - - - - - -
30/04:30pm 15.2 NW 11 18 1007.9 - 0.4 - - - - - - -
30/04:00pm 14.3 NW 11 17 1008.3 - 0.4 - - - - - - -
30/03:30pm 14.9 NW 11 21 1008.2 - 0.2 - - - - - - -
30/03:00pm 16.0 NW 7 12 1008.3 - 0.2 Recent precip. - - - - - -
30/02:30pm 15.9 NW 7 13 1008.1 - 0.2 - - - - - - -
30/02:00pm 14.3 WNW 12 22 1008.9 - 0.0 - - - - - - -
30/01:30pm 16.3 NW 10 17 1008.7 - 0.0 - - - - - - -
30/01:00pm 15.9 NW 8 14 1009.5 - 0.0 - - - - - - -
30/12:30pm 15.9 NW 14 26 1009.7 - 0.0 - - - - - - -
30/12:26pm 15.9 NW 15 26 1009.6 - 0.0 - - - - - - -
30/12:00pm 16.6 NW 11 17 1010.2 - 0.0 - - - - - - -
30/11:30am 15.8 NW 10 19 1010.5 - 0.0 - - - - - - -
30/11:00am 14.2 NNW 7 15 1011.2 - 0.0 - - - - - - -
30/10:30am 14.5 NW 10 19 1011.4 - 0.0 - - - - - - -
30/10:00am 14.3 NW 12 21 1011.5 - 0.0 - - - - - - -
30/09:30am 13.5 NNW 7 13 1011.5 - 0.0 - - - - - - -
30/09:00am 13.4 N 5 9 1011.4 - 14.2 - - - - - - -
30/08:30am 13.2 NNW 6 12 1011.1 - 14.2 - - - - - - -
30/08:00am 13.1 NW 7 11 1011.1 - 14.2 - - - - - - -
30/07:30am 12.7 NNW 7 12 1011.0 - 14.2 - - - - - - -
30/07:00am 12.1 NNW 5 9 1011.1 - 14.2 - - - - - - -
30/06:30am 12.2 NW 5 8 1010.9 - 14.2 - - - - - - -
30/06:00am 12.2 WNW 9 15 1010.9 - 14.2 - - - - - - -
30/05:30am 11.8 NW 6 10 1010.7 - 14.2 - - - - - - -
30/05:00am 12.2 NW 7 12 1010.5 - 14.2 - - - - - - -
30/04:30am 12.2 WNW 9 16 1010.1 - 14.2 - - - - - - -
30/04:00am 12.2 NW 5 9 1010.1 - 14.0 - - - - - - -
30/03:30am 12.3 NW 4 8 1010.1 - 12.0 - - - - - - -
30/03:00am 12.2 W 10 17 1010.4 - 11.2 Rain - - - - - -
30/02:36am 12.0 W 15 26 1009.9 - 9.6 - - - - - - -
30/02:30am 12.2 W 15 23 1010.0 - 9.0 - - - - - - -
30/02:13am 12.2 WNW 15 25 1009.8 - 7.8 - - - - - - -
30/02:00am 12.5 WNW 14 21 1010.0 - 6.8 - - - - - - -
30/01:30am 13.8 WNW 12 19 1009.7 - 6.6 - - - - - - -
30/01:00am 13.6 WNW 13 25 1009.5 - 6.6 - - - - - - -
30/12:30am 13.4 NW 13 20 1009.2 - 6.6 - - - - - - -
30/12:00am 13.1 WNW 11 19 1009.3 - 6.6 Recent precip. - - - - - -
 
Date/Time
EST
Temp

°C
Wind Pressure Rain
since 9am
mm
Weather Cloud Vis
km
Sea
Height
m
Swell
Dir
 
Speed
knots
Gust
knots
hPa Trend Height
m
Period
s
Dir
29/11:30pm 12.8 WNW 10 20 1009.5 - 6.4 - - - - - - -
29/11:00pm 13.1 WNW 10 18 1009.4 - 5.6 - - - - - - -
29/10:45pm 13.3 WNW 15 28 1008.9 - 5.6 - - - - - - -
29/10:30pm 13.2 WNW 11 20 1008.7 - 5.6 - - - - - - -
29/10:00pm 13.0 WNW 12 19 1008.9 - 5.4 - - - - - - -
29/09:30pm 14.7 WNW 14 25 1008.3 - 3.6 - - - - - - -
29/09:11pm 15.3 NW 15 25 1007.5 - 3.6 - - - - - - -
29/09:00pm 15.2 NW 15 23 1007.6 - 3.6 - - - - - - -
29/08:30pm 15.2 NW 15 22 1007.5 - 3.6 - - - - - - -
29/08:00pm 15.0 NW 15 26 1007.3 - 3.6 - - - - - - -
29/07:47pm 15.1 NW 15 25 1007.2 - 3.6 - - - - - - -
29/07:30pm 15.2 NW 14 23 1007.3 - 3.6 - - - - - - -
29/07:00pm 15.2 NW 15 26 1007.1 - 3.6 - - - - - - -
29/06:30pm 15.1 NNW 16 30 1006.5 - 3.4 - - - - - - -
29/06:15pm 15.1 NW 15 27 1006.3 - 3.4 - - - - - - -
29/06:00pm 14.5 NNW 12 20 1006.3 - 3.4 - - - - - - -
29/05:30pm 13.6 NNW 11 22 1006.3 - 3.4 - - - - - - -
29/05:00pm 12.6 NNW 13 21 1006.4 - 3.4 - - - - - - -
29/04:30pm 12.7 NNW 14 24 1006.3 - 2.2 - - - - - - -
29/04:00pm 13.2 NNW 13 22 1005.7 - 0.4 - - - - - - -
29/03:30pm 13.4 NNW 10 17 1005.5 - 0.2 - - - - - - -
29/03:00pm 13.8 NNW 15 23 1005.4 - 0.0 - - - - - - -
29/02:31pm 14.5 NNW 15 29 1004.8 - 0.0 - - - - - - -
29/02:30pm 14.5 NNW 14 29 1004.7 - 0.0 - - - - - - -
29/02:05pm 13.9 NNW 15 25 1005.0 - 0.0 - - - - - - -
29/02:00pm 13.9 NNW 14 22 1005.1 - 0.0 - - - - - - -
29/01:30pm 13.3 NNW 14 27 1005.0 - 0.0 - - - - - - -
29/01:08pm 13.9 NNW 15 27 1005.3 - 0.0 - - - - - - -
29/01:00pm 13.9 NNW 12 20 1005.4 - 0.0 - - - - - - -
29/12:39pm 13.8 NNW 15 27 1005.5 - 0.0 - - - - - - -
29/12:30pm 13.7 NNW 14 26 1005.6 - 0.0 - - - - - - -
29/12:01pm 14.0 NNW 15 26 1006.2 - 0.0 - - - - - - -
29/12:00pm 14.0 NNW 16 26 1006.4 - 0.0 - - - - - - -
29/11:30am 13.6 NNW 15 26 1006.3 - 0.0 - - - - - - -
29/11:08am 13.8 NNW 15 26 1007.0 - 0.0 - - - - - - -
29/11:00am 13.6 NNW 14 22 1006.8 - 0.0 - - - - - - -
29/10:30am 13.3 N 13 24 1006.7 - 0.0 - - - - - - -
29/10:00am 13.0 N 13 26 1006.6 - 0.0 - - - - - - -
29/09:30am 13.0 N 13 26 1006.8 - 0.0 - - - - - - -
29/09:18am 12.8 NNW 15 25 1006.9 - 0.0 - - - - - - -
29/09:00am 12.9 NNW 14 24 1007.4 - 0.0 - - - - - - -
29/08:30am 12.4 N 10 20 1007.8 - 0.0 - - - - - - -
29/08:00am 12.4 NNW 12 20 1008.2 - 0.0 - - - - - - -
29/07:30am 12.3 N 11 18 1007.4 - 0.0 - - - - - - -
29/07:05am 12.5 NNW 17 27 1006.8 - 0.0 - - - - - - -
29/07:00am 12.7 NNW 16 25 1007.0 - 0.0 - - - - - - -
29/06:30am 12.6 NNW 15 26 1006.9 - 0.0 - - - - - - -
29/06:00am 12.2 N 15 26 1007.0 - 0.0 - - - - - - -
29/05:30am 12.2 NNW 15 26 1006.9 - 0.0 - - - - - - -
29/05:00am 12.3 NNW 13 24 1007.5 - 0.0 - - - - - - -
29/04:30am 12.6 NNW 13 30 1007.4 - 0.0 - - - - - - -
29/04:00am 12.7 N 13 24 1007.6 - 0.0 - - - - - - -
29/03:30am 12.6 N 13 22 1007.8 - 0.0 - - - - - - -
29/03:00am 12.7 N 14 21 1008.2 - 0.0 - - - - - - -
29/02:45am 12.7 NNW 15 26 1008.1 - 0.0 - - - - - - -
29/02:30am 12.7 N 14 24 1008.1 - 0.0 - - - - - - -
29/02:00am 12.6 N 9 17 1009.1 - 0.0 - - - - - - -
29/01:30am 12.6 N 8 17 1009.5 - 0.0 - - - - - - -
29/01:00am 12.7 N 8 17 1010.0 - 0.0 - - - - - - -
29/12:30am 12.8 N 8 16 1010.4 - 0.0 - - - - - - -
29/12:00am 13.0 N 10 20 1010.9 - 0.0 - - - - - - -

Other Formats:

Comma delimited format used in spreadsheet applications
http://www.bom.gov.au/fwo/IDV60701/IDV60701.94898.axf

JavaScript Object Notation format (JSON) in row-major order
http://www.bom.gov.au/fwo/IDV60701/IDV60701.94898.json